Terminal Aerodrome Forecast
Issued by NWS

Home | Current Version | Previous Version | Text Only | Print | Product List | Glossary On
Versions: 1 2 3 4 5 6 7 8 9 10 11 12 13 14 15 16 17 18
000
FTUS41 KPBZ 291100
TAFBVI
TAF
KBVI 291129Z 2912/3012 14006KT P6SM BKN100
     FM291600 18010G17KT 5SM -SHRASN OVC025
     FM292000 20010G18KT 2SM -SHRA BR OVC008
     FM300200 25013G22KT 2SM -SHSN OVC008
     FM300900 31013G23KT 5SM -SHSN OVC010=

USA.gov is the U.S. government's official web portal to all federal, state and local government web resources and services.